Time;durP1;ratioP1;P1;durP2;ratioP2;P2;SDS_P1;SDS_P2;PMS_P1;PMS_P2;Temp;Humidity;BMP_temperature;BMP_pressure;BME280_temperature;BME280_humidity;BME280_pressure;Samples;Min_cycle;Max_cycle;Signal;HPM_P1;HPM_P2
2021/01/20 00:02:00;;;;;;;6.10;4.05;;;7.10;89.90;;;;;;5012236;28;20040;-63
2021/01/20 00:04:25;;;;;;;6.20;4.05;;;7.00;89.60;;;;;;5011086;28;20029;-63
2021/01/20 00:06:51;;;;;;;5.82;3.70;;;7.10;89.60;;;;;;5012400;28;20029;-63
2021/01/20 00:09:17;;;;;;;5.82;3.92;;;7.10;89.60;;;;;;5010177;28;20033;-63
2021/01/20 00:11:43;;;;;;;4.82;3.58;;;7.00;89.70;;;;;;5011319;28;20119;-63
2021/01/20 00:14:13;;;;;;;5.15;4.10;;;6.90;89.90;;;;;;5011368;28;20037;-63
2021/01/20 00:16:39;;;;;;;5.97;4.20;;;7.00;89.70;;;;;;5012026;28;20041;-63
2021/01/20 00:19:04;;;;;;;6.57;4.15;;;6.90;89.50;;;;;;5011461;28;20041;-63
2021/01/20 00:21:30;;;;;;;7.00;4.57;;;6.80;89.90;;;;;;5011327;28;20105;-63
2021/01/20 00:23:55;;;;;;;5.50;4.22;;;6.80;89.90;;;;;;5012778;28;20513;-63
2021/01/20 00:26:21;;;;;;;6.63;4.55;;;6.80;89.90;;;;;;5010119;28;20037;-63
2021/01/20 00:28:48;;;;;;;7.18;4.55;;;6.70;89.90;;;;;;5003286;28;20064;-63
2021/01/20 00:31:13;;;;;;;7.00;4.80;;;6.70;90.20;;;;;;5005757;28;20041;-63
2021/01/20 00:33:39;;;;;;;6.65;4.50;;;6.70;90.20;;;;;;5002258;28;20041;-63
2021/01/20 00:36:06;;;;;;;6.78;4.40;;;6.60;90.20;;;;;;5004544;28;20038;-63
2021/01/20 00:38:32;;;;;;;6.10;3.90;;;6.50;90.30;;;;;;5003760;28;20056;-63
2021/01/20 00:40:58;;;;;;;6.35;4.03;;;6.40;90.30;;;;;;5002751;28;20670;-63
2021/01/20 00:43:23;;;;;;;6.57;4.30;;;6.30;90.30;;;;;;5020444;28;20060;-63
2021/01/20 00:45:49;;;;;;;7.13;4.63;;;6.30;90.50;;;;;;5002858;28;20033;-63
2021/01/20 00:48:16;;;;;;;6.65;4.22;;;6.20;90.80;;;;;;5005296;28;20026;-63
2021/01/20 00:50:41;;;;;;;6.60;4.07;;;6.20;91.10;;;;;;5002612;28;20033;-63
2021/01/20 00:53:08;;;;;;;6.22;4.03;;;6.20;91.10;;;;;;5024911;28;20926;-63
2021/01/20 00:55:34;;;;;;;7.15;4.20;;;6.20;91.00;;;;;;5011025;28;20034;-63
2021/01/20 00:58:00;;;;;;;5.90;3.83;;;6.30;90.90;;;;;;5026204;28;20554;-63
2021/01/20 01:00:26;;;;;;;6.85;4.15;;;6.40;90.60;;;;;;5014428;28;20803;-63
2021/01/20 01:02:52;;;;;;;6.25;3.97;;;6.40;90.40;;;;;;5011594;28;20033;-63
2021/01/20 01:05:19;;;;;;;6.88;4.30;;;6.50;90.40;;;;;;5009644;28;20648;-63
2021/01/20 01:07:49;;;;;;;6.32;4.55;;;6.50;90.20;;;;;;5026749;28;20040;-63
2021/01/20 01:10:15;;;;;;;9.80;4.82;;;6.50;90.20;;;;;;5009254;28;20037;-63
2021/01/20 01:12:59;;;;;;;6.57;4.45;;;6.40;90.10;;;;;;5003100;28;20103;-63
2021/01/20 01:15:26;;;;;;;5.88;4.05;;;6.30;90.60;;;;;;5019861;28;20033;-63
2021/01/20 01:17:51;;;;;;;7.00;4.43;;;6.40;90.20;;;;;;5022364;28;20041;-63
2021/01/20 01:20:17;;;;;;;6.20;4.55;;;6.30;90.40;;;;;;5023960;28;20560;-63
2021/01/20 01:22:43;;;;;;;9.15;5.70;;;6.20;90.50;;;;;;5013812;28;20044;-63
2021/01/20 01:25:10;;;;;;;9.32;5.43;;;6.10;90.60;;;;;;5028374;28;20827;-63
2021/01/20 01:27:39;;;;;;;8.35;5.75;;;6.10;90.90;;;;;;5026718;28;20029;-63
2021/01/20 01:30:08;;;;;;;8.40;5.10;;;6.10;90.90;;;;;;5022991;28;20500;-63
2021/01/20 01:32:38;;;;;;;8.45;5.57;;;6.10;90.80;;;;;;5021047;28;20042;-63
2021/01/20 01:35:10;;;;;;;8.35;5.63;;;6.00;90.90;;;;;;5006089;28;20056;-63
2021/01/20 01:37:37;;;;;;;9.02;6.05;;;6.10;90.80;;;;;;5022108;28;20040;-63
2021/01/20 01:40:09;;;;;;;9.57;6.57;;;6.10;90.70;;;;;;5008380;28;20826;-63
2021/01/20 01:42:55;;;;;;;8.93;5.97;;;6.20;90.70;;;;;;5005912;28;20061;-63
2021/01/20 01:45:21;;;;;;;8.82;6.68;;;6.20;90.60;;;;;;5014092;28;20026;-63
2021/01/20 01:47:47;;;;;;;8.88;6.50;;;6.10;90.50;;;;;;5018397;28;20033;-63
2021/01/20 01:50:14;;;;;;;9.98;6.97;;;6.10;90.70;;;;;;5019294;28;20533;-63
2021/01/20 01:52:41;;;;;;;9.05;6.40;;;6.10;90.70;;;;;;5020283;28;20033;-63
2021/01/20 01:55:25;;;;;;;10.57;6.80;;;6.20;90.50;;;;;;5011296;28;20099;-63
2021/01/20 01:58:00;;;;;;;13.38;7.00;;;6.20;90.40;;;;;;5006186;28;20064;-63
2021/01/20 02:00:26;;;;;;;8.77;6.40;;;6.10;90.50;;;;;;5023323;28;20060;-63
2021/01/20 02:03:12;;;;;;;8.80;6.35;;;6.20;90.60;;;;;;5006187;28;20034;-63
2021/01/20 02:05:38;;;;;;;9.23;6.70;;;6.20;90.20;;;;;;5021144;28;20041;-63
2021/01/20 02:08:05;;;;;;;9.25;6.85;;;6.20;90.10;;;;;;5007431;28;20049;-63
2021/01/20 02:10:38;;;;;;;10.02;7.20;;;6.30;90.00;;;;;;5020277;28;20052;-63
2021/01/20 02:13:47;;;;;;;10.20;7.20;;;6.30;90.00;;;;;;5027026;28;20072;-63
2021/01/20 02:16:36;;;;;;;11.35;7.63;;;6.20;90.20;;;;;;5011978;28;20124;-63
2021/01/20 02:19:16;;;;;;;11.00;7.40;;;6.10;90.30;;;;;;5028246;28;20778;-63
2021/01/20 02:22:09;;;;;;;10.48;7.32;;;6.20;90.20;;;;;;5013475;28;20026;-63
2021/01/20 02:25:17;;;;;;;9.15;6.60;;;6.10;90.10;;;;;;5009588;28;20136;-63
2021/01/20 02:28:20;;;;;;;10.98;7.45;;;6.20;90.10;;;;;;5027202;28;20564;-63
2021/01/20 02:31:10;;;;;;;9.85;7.43;;;6.20;90.10;;;;;;5021845;28;20041;-63
2021/01/20 02:33:38;;;;;;;11.00;7.65;;;6.10;89.80;;;;;;5019452;28;20034;-63
2021/01/20 02:36:22;;;;;;;10.65;7.75;;;6.20;89.90;;;;;;5023395;28;20156;-63
2021/01/20 02:39:05;;;;;;;11.50;7.18;;;6.10;89.70;;;;;;5021532;28;20026;-63
2021/01/20 02:41:31;;;;;;;10.13;6.50;;;6.00;90.30;;;;;;5021160;28;20119;-63
2021/01/20 02:44:10;;;;;;;11.43;6.90;;;6.00;90.30;;;;;;5005370;28;20763;-63
2021/01/20 02:46:36;;;;;;;11.15;6.90;;;6.10;90.20;;;;;;5005058;28;20038;-63
2021/01/20 02:49:10;;;;;;;8.88;6.90;;;6.10;90.00;;;;;;5027629;28;20767;-63
2021/01/20 02:51:54;;;;;;;9.15;6.50;;;6.10;89.70;;;;;;5029156;28;20145;-63
2021/01/20 02:54:40;;;;;;;9.88;6.15;;;6.20;89.10;;;;;;5013663;28;20091;-63
2021/01/20 02:57:36;;;;;;;10.52;7.13;;;6.20;89.00;;;;;;5014464;28;20107;-63
2021/01/20 03:00:09;;;;;;;11.05;7.40;;;6.10;89.20;;;;;;5027528;28;20127;-63
2021/01/20 03:02:42;;;;;;;8.13;5.93;;;6.10;89.20;;;;;;5011247;28;20055;-63
2021/01/20 03:05:11;;;;;;;10.55;6.38;;;6.10;89.10;;;;;;5012362;28;20048;-63
2021/01/20 03:07:38;;;;;;;9.95;6.30;;;6.10;89.00;;;;;;5014180;28;20157;-63
2021/01/20 03:10:08;;;;;;;9.45;6.45;;;6.10;89.00;;;;;;5013035;28;20119;-63
2021/01/20 03:12:33;;;;;;;8.85;6.20;;;6.10;88.80;;;;;;5011958;28;20921;-63
2021/01/20 03:15:01;;;;;;;10.82;6.60;;;5.90;89.00;;;;;;5013249;28;20128;-63
2021/01/20 03:17:30;;;;;;;9.68;7.07;;;6.00;89.30;;;;;;5011798;28;20147;-63
2021/01/20 03:19:55;;;;;;;8.85;6.50;;;6.00;89.10;;;;;;5014714;28;20083;-63
2021/01/20 03:22:21;;;;;;;9.88;6.53;;;6.00;88.30;;;;;;5014107;28;20157;-63
2021/01/20 03:24:46;;;;;;;9.70;6.15;;;6.00;88.60;;;;;;5013623;28;20130;-63
2021/01/20 03:27:12;;;;;;;8.60;6.30;;;6.00;88.50;;;;;;5011233;28;20307;-63
2021/01/20 03:29:38;;;;;;;8.85;6.20;;;5.90;88.70;;;;;;5013585;28;20042;-63
2021/01/20 03:32:03;;;;;;;8.48;5.50;;;5.90;88.80;;;;;;5011988;28;20678;-63
2021/01/20 03:34:29;;;;;;;7.70;6.03;;;5.90;88.70;;;;;;5012172;28;20658;-63
2021/01/20 03:36:55;;;;;;;9.13;5.80;;;5.80;88.70;;;;;;5013228;28;20042;-62
2021/01/20 03:39:20;;;;;;;8.80;5.18;;;5.70;89.10;;;;;;5025563;28;20128;-63
2021/01/20 03:41:46;;;;;;;5.93;4.47;;;5.70;89.10;;;;;;5013117;28;20044;-63
2021/01/20 03:44:12;;;;;;;8.25;5.03;;;5.60;89.20;;;;;;5011365;28;20088;-63
2021/01/20 03:46:37;;;;;;;8.40;5.22;;;5.70;89.60;;;;;;5012402;28;20056;-63
2021/01/20 03:49:03;;;;;;;7.47;4.80;;;5.70;89.10;;;;;;5012692;28;20128;-63
2021/01/20 03:51:29;;;;;;;9.43;5.65;;;5.70;88.30;;;;;;5011976;28;20052;-63
2021/01/20 03:53:56;;;;;;;8.20;4.78;;;5.80;88.40;;;;;;5013421;28;20037;-63
2021/01/20 03:56:22;;;;;;;8.02;5.10;;;5.70;88.30;;;;;;5009494;28;20045;-63
2021/01/20 03:58:47;;;;;;;10.25;4.60;;;5.70;88.90;;;;;;5003833;28;20050;-63
2021/01/20 04:01:13;;;;;;;7.38;4.63;;;5.60;88.70;;;;;;5005908;28;20049;-63
2021/01/20 04:03:39;;;;;;;7.30;4.70;;;5.60;88.40;;;;;;5004104;28;20049;-63
2021/01/20 04:06:19;;;;;;;7.65;4.50;;;5.50;88.40;;;;;;5004107;28;20084;-63
2021/01/20 04:08:46;;;;;;;5.88;4.40;;;5.50;88.80;;;;;;5022232;28;20038;-63
2021/01/20 04:11:12;;;;;;;7.60;4.40;;;5.50;88.10;;;;;;5009342;28;20589;-63
2021/01/20 04:13:38;;;;;;;6.65;4.13;;;5.50;87.90;;;;;;5012581;28;20049;-63
2021/01/20 04:16:04;;;;;;;6.25;3.83;;;5.60;87.80;;;;;;5011042;28;20033;-63
2021/01/20 04:18:30;;;;;;;8.98;4.22;;;5.50;87.60;;;;;;5010937;28;20057;-63
2021/01/20 04:20:55;;;;;;;6.95;4.10;;;5.50;87.90;;;;;;5012917;28;20033;-63
2021/01/20 04:23:21;;;;;;;5.82;3.80;;;5.50;87.90;;;;;;5009701;28;20513;-62
2021/01/20 04:25:47;;;;;;;6.20;3.78;;;5.50;87.70;;;;;;5012273;28;20063;-63
2021/01/20 04:28:12;;;;;;;5.25;3.58;;;5.50;87.10;;;;;;5010695;28;20044;-63
2021/01/20 04:30:38;;;;;;;5.85;3.60;;;5.50;86.80;;;;;;5012054;28;20049;-63
2021/01/20 04:33:04;;;;;;;6.65;3.67;;;5.60;86.90;;;;;;5006979;28;20103;-63
2021/01/20 04:35:29;;;;;;;5.70;3.63;;;5.60;86.00;;;;;;5006503;28;20572;-62
2021/01/20 04:37:55;;;;;;;12.05;3.65;;;5.70;85.90;;;;;;5012131;28;20161;-62
2021/01/20 04:40:21;;;;;;;4.82;2.75;;;5.60;85.10;;;;;;5008440;28;20095;-63
2021/01/20 04:42:47;;;;;;;5.30;3.17;;;5.60;85.20;;;;;;5012775;28;20033;-63
2021/01/20 04:45:13;;;;;;;6.28;2.85;;;5.60;85.20;;;;;;5009860;28;20035;-63
2021/01/20 04:47:40;;;;;;;5.35;3.25;;;5.60;84.70;;;;;;5012026;28;20029;-63
2021/01/20 04:50:09;;;;;;;8.02;3.33;;;5.60;84.80;;;;;;5026191;28;20546;-62
2021/01/20 04:52:35;;;;;;;6.65;3.08;;;5.60;84.20;;;;;;5011212;28;20787;-63
2021/01/20 04:55:02;;;;;;;8.10;2.63;;;5.70;84.00;;;;;;5011959;28;20037;-63
2021/01/20 04:57:28;;;;;;;7.60;2.63;;;5.60;83.60;;;;;;5010010;28;20075;-63
2021/01/20 04:59:54;;;;;;;5.22;2.47;;;5.60;83.30;;;;;;5012572;28;20410;-63
2021/01/20 05:02:22;;;;;;;3.60;2.83;;;5.60;83.20;;;;;;5009347;28;20049;-63
2021/01/20 05:04:50;;;;;;;8.70;2.97;;;5.50;83.60;;;;;;5012206;28;20500;-63
2021/01/20 05:07:16;;;;;;;4.93;2.53;;;5.50;83.40;;;;;;5008784;28;20037;-63
2021/01/20 05:09:42;;;;;;;8.35;2.60;;;5.60;83.40;;;;;;5012357;28;20042;-63
2021/01/20 05:12:08;;;;;;;7.90;2.60;;;5.60;83.30;;;;;;5010827;28;20088;-63
2021/01/20 05:14:41;;;;;;;11.25;2.53;;;5.60;83.60;;;;;;5011080;28;20072;-63
2021/01/20 05:17:07;;;;;;;4.43;2.10;;;5.60;83.20;;;;;;5010594;28;20103;-63
2021/01/20 05:19:38;;;;;;;4.07;2.20;;;5.70;82.00;;;;;;5011611;28;20835;-63
2021/01/20 05:22:05;;;;;;;6.00;2.13;;;5.70;81.90;;;;;;5011236;28;20124;-63
2021/01/20 05:24:35;;;;;;;5.65;2.10;;;5.60;81.80;;;;;;5010932;28;20030;-63
2021/01/20 05:27:01;;;;;;;3.72;2.42;;;5.50;82.50;;;;;;5010934;28;20041;-63
2021/01/20 05:29:27;;;;;;;5.70;2.40;;;5.40;82.30;;;;;;5008837;28;20041;-63
2021/01/20 05:31:53;;;;;;;6.45;2.10;;;5.50;82.90;;;;;;5012157;28;20033;-63
2021/01/20 05:34:30;;;;;;;6.03;2.40;;;5.50;82.00;;;;;;5010164;28;20250;-63
2021/01/20 05:37:05;;;;;;;5.13;1.67;;;5.50;81.80;;;;;;5011300;28;20034;-63
2021/01/20 05:39:32;;;;;;;3.92;1.80;;;5.50;81.70;;;;;;5011243;28;20038;-63
2021/01/20 05:42:09;;;;;;;5.63;2.33;;;5.50;82.00;;;;;;5011953;28;20049;-63
2021/01/20 05:44:36;;;;;;;6.38;2.05;;;5.50;81.30;;;;;;5011765;28;20038;-63
2021/01/20 05:47:13;;;;;;;3.63;1.65;;;5.50;81.50;;;;;;5010316;28;20113;-62
2021/01/20 05:49:39;;;;;;;;;;;5.50;81.50;;;;;;5012539;28;20091;-62
2021/01/20 05:52:15;;;;;;;4.80;2.10;;;5.50;81.60;;;;;;5010717;28;20766;-62
2021/01/20 05:54:41;;;;;;;7.45;2.53;;;5.50;81.90;;;;;;5009764;28;20029;-62
2021/01/20 05:57:14;;;;;;;3.60;2.35;;;5.40;81.50;;;;;;5010082;28;20108;-63
2021/01/20 05:59:41;;;;;;;4.65;2.42;;;5.50;81.70;;;;;;5011502;28;20034;-62
2021/01/20 06:02:08;;;;;;;4.05;2.42;;;5.40;81.50;;;;;;5010447;28;20148;-62
2021/01/20 06:04:36;;;;;;;3.00;2.30;;;5.50;81.80;;;;;;5011152;28;20569;-62
2021/01/20 06:07:09;;;;;;;4.38;2.20;;;5.40;81.70;;;;;;5010541;28;20805;-62
2021/01/20 06:09:40;;;;;;;4.20;2.38;;;5.50;81.30;;;;;;5023377;28;20040;-62
2021/01/20 06:12:07;;;;;;;2.35;1.77;;;5.50;81.80;;;;;;5023444;28;20032;-62
2021/01/20 06:14:34;;;;;;;4.30;2.10;;;5.60;80.80;;;;;;5006729;28;20035;-62
2021/01/20 06:17:16;;;;;;;5.72;2.53;;;5.50;81.20;;;;;;5017007;28;20048;-62
2021/01/20 06:19:54;;;;;;;5.15;2.15;;;5.50;81.10;;;;;;5017824;28;20041;-62
2021/01/20 06:22:21;;;;;;;3.90;2.42;;;5.50;80.90;;;;;;5011988;28;20057;-62
2021/01/20 06:24:51;;;;;;;3.30;2.03;;;5.40;80.90;;;;;;5015370;28;20056;-63
2021/01/20 06:27:19;;;;;;;3.55;2.05;;;5.40;81.70;;;;;;5011695;28;20026;-62
2021/01/20 06:29:51;;;;;;;4.65;2.28;;;5.30;81.30;;;;;;5014962;28;20033;-62
2021/01/20 06:32:21;;;;;;;3.35;2.10;;;5.30;80.80;;;;;;5012080;28;20466;-62
2021/01/20 06:34:53;;;;;;;5.82;2.47;;;5.30;81.70;;;;;;5018958;28;20038;-62
2021/01/20 06:37:46;;;;;;;3.45;1.98;;;5.20;81.30;;;;;;5007508;28;20044;-62
2021/01/20 06:40:18;;;;;;;3.42;1.80;;;5.10;82.40;;;;;;5007259;28;20076;-62
2021/01/20 06:42:44;;;;;;;4.13;1.77;;;5.20;82.30;;;;;;5019894;28;20734;-62
2021/01/20 06:45:22;;;;;;;4.00;1.92;;;5.20;82.20;;;;;;5017902;28;20037;-62
2021/01/20 06:47:59;;;;;;;4.30;2.15;;;5.30;83.80;;;;;;5017054;28;20037;-62
2021/01/20 06:50:33;;;;;;;5.13;2.42;;;5.30;84.20;;;;;;5022593;28;20029;-62
2021/01/20 06:53:08;;;;;;;5.95;2.05;;;5.30;84.30;;;;;;5018315;28;20045;-62
2021/01/20 06:55:39;;;;;;;3.22;1.67;;;5.40;84.50;;;;;;5016293;28;20099;-62
2021/01/20 06:58:24;;;;;;;5.05;2.08;;;5.40;83.50;;;;;;5006117;28;20045;-62
2021/01/20 07:00:58;;;;;;;3.88;2.33;;;5.40;83.80;;;;;;5012329;28;20049;-63
2021/01/20 07:03:41;;;;;;;4.00;2.30;;;5.30;84.20;;;;;;5010742;28;20045;-63
2021/01/20 07:06:38;;;;;;;4.22;2.13;;;5.40;84.10;;;;;;5017175;28;20040;-63
2021/01/20 07:09:11;;;;;;;4.00;2.15;;;5.50;83.70;;;;;;5020516;28;20041;-62
2021/01/20 07:11:55;;;;;;;3.05;1.75;;;5.40;82.70;;;;;;5005124;28;20049;-62
2021/01/20 07:14:30;;;;;;;4.30;1.75;;;5.40;82.50;;;;;;5007814;28;20099;-62
2021/01/20 07:16:56;;;;;;;3.53;1.85;;;5.50;82.80;;;;;;5010631;28;20037;-63
2021/01/20 07:19:22;;;;;;;5.03;2.33;;;5.50;82.40;;;;;;5016702;28;20045;-62
2021/01/20 07:21:48;;;;;;;5.05;1.90;;;5.50;81.80;;;;;;5013254;28;20041;-62
2021/01/20 07:24:14;;;;;;;3.38;2.00;;;5.60;81.60;;;;;;5024550;28;20709;-62
2021/01/20 07:26:41;;;;;;;2.38;1.70;;;5.60;81.60;;;;;;5005049;28;20048;-62
2021/01/20 07:29:17;;;;;;;4.35;2.03;;;5.60;81.40;;;;;;5014681;28;20037;-62
2021/01/20 07:31:47;;;;;;;3.30;1.73;;;5.60;81.20;;;;;;5015747;28;20169;-62
2021/01/20 07:34:13;;;;;;;2.25;1.60;;;5.60;81.50;;;;;;5015815;28;20120;-62
2021/01/20 07:36:39;;;;;;;1.58;1.42;;;5.60;80.80;;;;;;5013739;28;20118;-63
2021/01/20 07:39:24;;;;;;;2.80;1.63;;;5.70;81.20;;;;;;5012456;28;20041;-62
2021/01/20 07:41:56;;;;;;;2.30;1.65;;;5.70;80.60;;;;;;5014339;28;20077;-62
2021/01/20 07:44:26;;;;;;;5.88;1.77;;;5.80;80.60;;;;;;5013579;28;20036;-62
2021/01/20 07:47:08;;;;;;;7.18;1.85;;;5.80;80.20;;;;;;5013725;28;20068;-63
2021/01/20 07:49:35;;;;;;;3.55;1.88;;;5.80;80.20;;;;;;5010078;28;20029;-62
2021/01/20 07:52:06;;;;;;;2.40;1.52;;;5.90;79.50;;;;;;5004256;28;20033;-62
2021/01/20 07:54:38;;;;;;;4.10;1.75;;;5.70;79.40;;;;;;5009896;28;20037;-63
2021/01/20 07:57:05;;;;;;;4.28;1.90;;;5.70;80.30;;;;;;5012702;28;20080;-62
2021/01/20 07:59:33;;;;;;;3.35;1.92;;;5.70;80.30;;;;;;5028121;28;20378;-62
2021/01/20 08:02:09;;;;;;;1.92;1.50;;;5.80;79.90;;;;;;5027820;28;20060;-62
2021/01/20 08:04:36;;;;;;;2.53;1.60;;;5.90;79.50;;;;;;5023767;28;20792;-62
2021/01/20 08:07:02;;;;;;;2.88;1.50;;;5.90;78.80;;;;;;5021881;28;20103;-63
2021/01/20 08:09:45;;;;;;;3.92;2.05;;;5.90;79.00;;;;;;5015338;28;20137;-62
2021/01/20 08:12:17;;;;;;;3.45;1.48;;;6.00;79.30;;;;;;5016556;28;20056;-62
2021/01/20 08:14:44;;;;;;;2.70;1.52;;;6.10;78.20;;;;;;5018354;28;20553;-62
2021/01/20 08:17:11;;;;;;;4.28;1.35;;;6.10;77.50;;;;;;5031143;28;20140;-62
2021/01/20 08:19:39;;;;;;;3.42;1.48;;;6.10;77.40;;;;;;5015247;28;20025;-62
2021/01/20 08:22:14;;;;;;;2.55;1.75;;;6.20;77.40;;;;;;5004676;28;20032;-62
2021/01/20 08:24:48;;;;;;;4.72;1.75;;;6.30;76.30;;;;;;5011759;28;20048;-62
2021/01/20 08:27:14;;;;;;;3.58;1.80;;;6.40;76.40;;;;;;5026559;28;20040;-62
2021/01/20 08:29:51;;;;;;;2.63;1.50;;;6.30;75.70;;;;;;5014699;28;20045;-62
2021/01/20 08:32:16;;;;;;;3.45;1.40;;;6.30;76.30;;;;;;5016329;28;20635;-62
2021/01/20 08:34:43;;;;;;;3.22;1.70;;;6.40;76.50;;;;;;5018854;28;20037;-62
2021/01/20 08:37:18;;;;;;;2.08;1.40;;;6.50;76.30;;;;;;5032544;28;20581;-62
2021/01/20 08:39:58;;;;;;;3.53;1.95;;;6.60;75.60;;;;;;5010239;28;20087;-63
2021/01/20 08:42:36;;;;;;;4.53;2.05;;;6.60;74.70;;;;;;5009224;28;20044;-63
2021/01/20 08:45:15;;;;;;;3.85;1.55;;;6.60;75.10;;;;;;5017598;28;20037;-63
2021/01/20 08:48:06;;;;;;;3.72;1.75;;;6.70;74.40;;;;;;5007401;28;20030;-63
2021/01/20 08:50:46;;;;;;;3.25;1.90;;;6.70;75.00;;;;;;5022122;28;20493;-64
2021/01/20 08:53:24;;;;;;;3.60;2.10;;;6.80;74.60;;;;;;5001840;28;20129;-63
2021/01/20 08:55:54;;;;;;;4.82;1.60;;;6.90;74.50;;;;;;5004480;28;20132;-63
2021/01/20 08:58:20;;;;;;;3.72;1.80;;;6.90;73.90;;;;;;5011361;28;20156;-63
2021/01/20 09:00:51;;;;;;;4.90;2.42;;;6.90;74.80;;;;;;5014747;28;20028;-62
2021/01/20 09:03:22;;;;;;;3.33;1.77;;;7.10;73.60;;;;;;5019705;28;20044;-64
2021/01/20 09:05:50;;;;;;;2.80;1.70;;;7.10;73.00;;;;;;5020657;28;20506;-63
2021/01/20 09:08:16;;;;;;;2.92;1.80;;;7.00;72.90;;;;;;5010579;28;20037;-63
2021/01/20 09:10:43;;;;;;;3.90;1.65;;;7.10;73.70;;;;;;5002591;28;20041;-63
2021/01/20 09:13:09;;;;;;;2.95;1.75;;;7.20;73.00;;;;;;5015924;28;20116;-63
2021/01/20 09:15:35;;;;;;;3.30;1.73;;;7.20;72.20;;;;;;5014069;28;20056;-62
2021/01/20 09:18:01;;;;;;;2.15;1.48;;;7.20;72.50;;;;;;5003356;28;20038;-62
2021/01/20 09:20:27;;;;;;;3.40;1.55;;;7.10;72.30;;;;;;5004855;28;20969;-62
2021/01/20 09:22:52;;;;;;;2.92;1.60;;;7.20;72.60;;;;;;5012882;28;20029;-62
2021/01/20 09:25:18;;;;;;;3.30;1.27;;;7.10;72.60;;;;;;5008886;28;20038;-62
2021/01/20 09:27:44;;;;;;;2.55;1.60;;;7.10;72.80;;;;;;5011947;28;20065;-62
2021/01/20 09:30:11;;;;;;;2.45;1.55;;;7.20;72.50;;;;;;5028296;28;20761;-62
2021/01/20 09:32:40;;;;;;;3.97;2.10;;;7.30;72.50;;;;;;5013633;28;20072;-62
2021/01/20 09:35:11;;;;;;;2.63;1.65;;;7.40;71.20;;;;;;5010191;28;20087;-62
2021/01/20 09:37:38;;;;;;;1.73;1.38;;;7.60;70.90;;;;;;5010995;28;20476;-62
2021/01/20 09:40:07;;;;;;;3.03;1.77;;;7.80;69.80;;;;;;5011133;28;20044;-62
2021/01/20 09:42:37;;;;;;;2.30;1.80;;;7.90;69.70;;;;;;5010352;28;20072;-62
2021/01/20 09:45:05;;;;;;;3.30;2.08;;;8.00;69.20;;;;;;5021409;28;20505;-62
2021/01/20 09:47:31;;;;;;;4.47;2.08;;;8.10;68.70;;;;;;5024808;28;20029;-62
2021/01/20 09:49:56;;;;;;;3.50;1.70;;;8.10;69.30;;;;;;5013313;28;20029;-62
2021/01/20 09:52:25;;;;;;;2.97;1.95;;;8.10;69.30;;;;;;5012896;28;20484;-63
2021/01/20 09:54:54;;;;;;;2.47;1.40;;;7.90;69.00;;;;;;5014850;28;20041;-63
2021/01/20 09:57:21;;;;;;;2.78;1.65;;;7.80;70.20;;;;;;5032889;28;20033;-62
2021/01/20 09:59:48;;;;;;;4.50;1.58;;;7.80;69.90;;;;;;5013731;28;20060;-62
2021/01/20 10:02:14;;;;;;;3.33;1.27;;;7.70;70.30;;;;;;5013642;28;20040;-62
2021/01/20 10:04:41;;;;;;;2.95;1.42;;;7.80;70.50;;;;;;5015631;28;20030;-62
2021/01/20 10:07:07;;;;;;;3.97;1.60;;;7.90;69.40;;;;;;5013226;28;20049;-62
2021/01/20 10:09:33;;;;;;;3.25;1.70;;;7.90;69.20;;;;;;5014693;28;20486;-62
2021/01/20 10:11:59;;;;;;;3.33;1.70;;;7.90;68.90;;;;;;5020534;28;20264;-62
2021/01/20 10:14:25;;;;;;;2.35;1.42;;;8.10;68.60;;;;;;5018253;28;20220;-62
2021/01/20 10:16:52;;;;;;;1.63;1.30;;;8.10;68.00;;;;;;5033627;28;20030;-62
2021/01/20 10:19:18;;;;;;;3.45;1.20;;;8.10;67.80;;;;;;5031175;28;20037;-62
2021/01/20 10:21:44;;;;;;;3.50;1.45;;;8.10;67.00;;;;;;5013569;28;20500;-61
2021/01/20 10:24:11;;;;;;;2.22;1.40;;;8.00;67.40;;;;;;5010839;28;20045;-63
2021/01/20 10:26:37;;;;;;;2.78;1.42;;;8.10;67.60;;;;;;5025015;28;20033;-62
2021/01/20 10:29:04;;;;;;;2.95;1.52;;;8.20;67.80;;;;;;5019257;28;20113;-63
2021/01/20 10:31:31;;;;;;;4.70;1.65;;;8.20;66.20;;;;;;5018285;28;20037;-62
2021/01/20 10:33:58;;;;;;;3.03;1.52;;;8.20;67.00;;;;;;5039451;28;20131;-62
2021/01/20 10:36:24;;;;;;;3.10;1.90;;;8.20;66.50;;;;;;5005927;28;20053;-62
2021/01/20 10:38:49;;;;;;;2.35;1.63;;;8.20;66.40;;;;;;5009412;28;20030;-62
2021/01/20 10:41:18;;;;;;;3.65;1.48;;;8.20;67.30;;;;;;5023663;28;20042;-61
2021/01/20 10:43:43;;;;;;;2.40;1.48;;;8.20;66.60;;;;;;5030771;28;20074;-62
2021/01/20 10:46:09;;;;;;;4.00;1.63;;;8.20;66.40;;;;;;5026933;28;20191;-65
2021/01/20 10:48:35;;;;;;;3.72;1.85;;;8.10;67.30;;;;;;5034051;28;20529;-63
2021/01/20 10:51:00;;;;;;;1.83;1.30;;;8.10;67.20;;;;;;5036526;28;20029;-63
2021/01/20 10:53:26;;;;;;;1.92;1.23;;;8.20;66.20;;;;;;5039634;28;20040;-63
2021/01/20 10:55:51;;;;;;;2.08;1.42;;;8.30;66.20;;;;;;5035073;28;20102;-64
2021/01/20 10:58:17;;;;;;;2.72;1.70;;;8.30;66.40;;;;;;5038540;28;20048;-63
2021/01/20 11:00:46;;;;;;;3.22;1.73;;;8.30;66.60;;;;;;5039489;28;20565;-63
2021/01/20 11:03:13;;;;;;;2.97;1.30;;;8.40;65.80;;;;;;5034270;28;20087;-63
2021/01/20 11:05:39;;;;;;;2.20;1.55;;;8.40;65.90;;;;;;5030986;28;20568;-63
2021/01/20 11:08:05;;;;;;;3.17;1.50;;;8.30;66.20;;;;;;5037316;28;20052;-63
2021/01/20 11:10:31;;;;;;;2.03;1.30;;;8.30;67.00;;;;;;5037172;28;20029;-62
2021/01/20 11:12:57;;;;;;;3.63;1.80;;;8.30;67.00;;;;;;5036621;28;20630;-63
2021/01/20 11:15:23;;;;;;;5.50;1.73;;;8.30;67.90;;;;;;5034872;28;20063;-63
2021/01/20 11:17:49;;;;;;;6.20;3.17;;;8.30;68.10;;;;;;5037341;28;20029;-62
2021/01/20 11:20:16;;;;;;;3.40;1.50;;;8.40;67.40;;;;;;5039547;28;20040;-62
2021/01/20 11:22:42;;;;;;;2.78;1.70;;;8.30;68.00;;;;;;5028576;28;20048;-62
2021/01/20 11:25:08;;;;;;;4.20;1.95;;;8.40;67.00;;;;;;5035560;28;20033;-62
2021/01/20 11:27:34;;;;;;;2.33;1.30;;;8.60;67.00;;;;;;5039147;28;20056;-63
2021/01/20 11:30:00;;;;;;;3.45;1.70;;;8.50;66.20;;;;;;5038739;28;20079;-62
2021/01/20 11:32:26;;;;;;;2.10;1.77;;;8.50;67.10;;;;;;5039500;28;20123;-62
2021/01/20 11:34:52;;;;;;;3.10;1.70;;;8.50;67.10;;;;;;5038700;28;20340;-62
2021/01/20 11:37:17;;;;;;;2.70;1.50;;;8.60;67.00;;;;;;5026876;28;20118;-62
2021/01/20 11:39:43;;;;;;;1.27;1.00;;;8.60;66.80;;;;;;5031753;28;20025;-62
2021/01/20 11:42:09;;;;;;;1.75;1.17;;;8.60;67.20;;;;;;5030948;28;20536;-62
2021/01/20 11:44:37;;;;;;;1.60;1.17;;;8.70;66.00;;;;;;5037158;28;20036;-62
2021/01/20 11:47:03;;;;;;;2.45;1.20;;;8.80;66.50;;;;;;5037868;28;20116;-62
2021/01/20 11:49:29;;;;;;;2.42;1.27;;;8.80;65.90;;;;;;5035577;28;20505;-61
2021/01/20 11:51:55;;;;;;;2.03;1.25;;;8.90;65.80;;;;;;5030335;28;20029;-62
2021/01/20 11:54:20;;;;;;;1.15;1.02;;;8.90;65.40;;;;;;5032423;28;20033;-62
2021/01/20 11:56:46;;;;;;;2.28;1.33;;;8.90;65.40;;;;;;5031506;28;20031;-62
2021/01/20 11:59:12;;;;;;;1.20;1.10;;;8.90;65.90;;;;;;5026878;28;20092;-63
2021/01/20 12:01:37;;;;;;;2.40;1.13;;;8.90;65.40;;;;;;5020008;28;20029;-63
2021/01/20 12:04:06;;;;;;;2.78;1.20;;;8.90;65.70;;;;;;5034566;28;20145;-62
2021/01/20 12:06:31;;;;;;;2.20;1.60;;;9.00;65.40;;;;;;5027654;28;20033;-62
2021/01/20 12:08:57;;;;;;;2.63;1.00;;;9.10;65.30;;;;;;5034641;28;20131;-62
2021/01/20 12:11:24;;;;;;;1.63;1.25;;;9.00;64.50;;;;;;5038413;28;20029;-62
2021/01/20 12:13:50;;;;;;;6.32;1.17;;;9.00;65.40;;;;;;5038465;28;20755;-62
2021/01/20 12:16:16;;;;;;;2.15;0.90;;;9.00;66.10;;;;;;5037065;28;20039;-61
2021/01/20 12:18:42;;;;;;;3.10;1.20;;;9.00;65.30;;;;;;5024577;28;20733;-62
2021/01/20 12:21:07;;;;;;;2.20;1.30;;;9.00;65.50;;;;;;5037113;28;20040;-62
2021/01/20 12:23:33;;;;;;;1.98;1.35;;;9.00;65.20;;;;;;5037319;28;20128;-62
2021/01/20 12:25:59;;;;;;;2.47;1.25;;;9.00;65.70;;;;;;5037861;28;20126;-62
2021/01/20 12:28:25;;;;;;;2.90;1.20;;;9.00;65.30;;;;;;5030149;28;20065;-62
2021/01/20 12:30:50;;;;;;;2.55;1.20;;;9.00;65.00;;;;;;5036670;28;20033;-60
2021/01/20 12:33:16;;;;;;;2.10;1.15;;;9.10;65.50;;;;;;5036460;28;20037;-64
2021/01/20 12:35:42;;;;;;;1.20;1.02;;;9.10;64.40;;;;;;5032267;28;20040;-63
2021/01/20 12:38:08;;;;;;;3.00;1.92;;;9.10;64.50;;;;;;5032400;28;20025;-63
2021/01/20 12:40:34;;;;;;;2.88;1.20;;;9.10;65.70;;;;;;5023717;28;20780;-63
2021/01/20 12:42:59;;;;;;;2.88;1.20;;;9.20;64.10;;;;;;5026359;28;20045;-64
2021/01/20 12:45:25;;;;;;;2.75;1.10;;;9.30;64.30;;;;;;5030446;28;20028;-63
2021/01/20 12:47:51;;;;;;;1.52;0.90;;;9.40;63.60;;;;;;5035565;28;20148;-63
2021/01/20 12:50:17;;;;;;;1.23;1.00;;;9.30;63.70;;;;;;5037584;28;20037;-63
2021/01/20 12:52:42;;;;;;;2.35;1.00;;;9.40;63.80;;;;;;5032432;28;20044;-64
2021/01/20 12:55:09;;;;;;;1.00;0.75;;;9.40;63.30;;;;;;5031651;28;20044;-64
2021/01/20 12:57:35;;;;;;;1.60;1.20;;;9.50;63.70;;;;;;5036985;28;20041;-64
2021/01/20 13:00:00;;;;;;;2.75;1.25;;;9.50;62.70;;;;;;5035855;28;20037;-64
2021/01/20 13:02:26;;;;;;;1.50;1.20;;;9.40;63.20;;;;;;5036223;28;20405;-63
2021/01/20 13:04:51;;;;;;;2.10;1.02;;;9.50;62.20;;;;;;5037761;28;20856;-63
2021/01/20 13:07:17;;;;;;;3.25;1.25;;;9.50;62.60;;;;;;5036583;28;20556;-64
2021/01/20 13:09:43;;;;;;;2.28;1.27;;;9.30;63.00;;;;;;5037724;28;20098;-64